createdAt,value
2022-12-08T00:00:20.295Z,987.06
2022-12-08T00:01:20.266Z,986.99
2022-12-08T00:02:20.378Z,987.04
2022-12-08T00:03:20.458Z,987.01
2022-12-08T00:04:20.263Z,987.00
2022-12-08T00:05:20.253Z,986.99
2022-12-08T00:06:20.227Z,987.00
2022-12-08T00:07:20.219Z,987.03
2022-12-08T00:08:20.262Z,987.03
2022-12-08T00:09:20.216Z,986.95
2022-12-08T00:10:47.903Z,986.92
2022-12-08T00:11:22.191Z,986.92
2022-12-08T00:12:46.584Z,986.90
2022-12-08T00:13:20.163Z,986.84
2022-12-08T00:14:20.180Z,986.87
2022-12-08T00:15:20.145Z,986.88
2022-12-08T00:16:20.224Z,986.79
2022-12-08T00:17:20.132Z,986.79
2022-12-08T00:18:20.140Z,986.80
2022-12-08T00:19:20.130Z,986.77
2022-12-08T00:20:20.107Z,986.79
2022-12-08T00:21:20.100Z,986.77
2022-12-08T00:22:20.086Z,986.77
2022-12-08T00:23:20.083Z,986.77
2022-12-08T00:24:20.118Z,986.74
2022-12-08T00:25:20.058Z,986.79
2022-12-08T00:26:20.052Z,986.78
2022-12-08T00:27:20.043Z,986.79
2022-12-08T00:28:20.026Z,986.77
2022-12-08T00:29:20.043Z,986.75
2022-12-08T00:30:20.039Z,986.73
2022-12-08T00:31:20.052Z,986.78
2022-12-08T00:32:20.080Z,986.79
2022-12-08T00:33:19.998Z,986.83
2022-12-08T00:34:20.006Z,986.81
2022-12-08T00:35:19.985Z,986.77
2022-12-08T00:36:19.967Z,986.79
2022-12-08T00:37:19.961Z,986.80
2022-12-08T00:38:19.949Z,986.75
2022-12-08T00:39:19.968Z,986.71
2022-12-08T00:40:19.938Z,986.72
2022-12-08T00:41:19.934Z,986.69
2022-12-08T00:42:19.926Z,986.66
2022-12-08T00:43:19.912Z,986.72
2022-12-08T00:44:19.922Z,986.71
2022-12-08T00:45:19.900Z,986.71
2022-12-08T00:46:19.922Z,986.71
2022-12-08T00:47:24.489Z,986.67
2022-12-08T00:48:20.873Z,986.65
2022-12-08T00:49:19.883Z,986.67
2022-12-08T00:50:19.853Z,986.67
2022-12-08T00:51:20.566Z,986.62
2022-12-08T00:52:19.833Z,986.65
2022-12-08T00:53:19.823Z,986.60
2022-12-08T00:54:19.838Z,986.58
2022-12-08T00:55:19.808Z,986.54
2022-12-08T00:56:19.795Z,986.56
2022-12-08T00:57:19.791Z,986.54
2022-12-08T00:58:19.798Z,986.52
2022-12-08T00:59:19.799Z,986.47
2022-12-08T01:00:19.772Z,986.51
2022-12-08T01:01:19.950Z,986.53
2022-12-08T01:02:19.757Z,986.45
2022-12-08T01:03:19.834Z,986.48
2022-12-08T01:04:19.760Z,986.49
2022-12-08T01:05:19.736Z,986.43
2022-12-08T01:06:19.725Z,986.46
2022-12-08T01:07:19.709Z,986.49
2022-12-08T01:08:19.734Z,986.47
2022-12-08T01:09:19.719Z,986.48
2022-12-08T01:10:19.684Z,986.54
2022-12-08T01:11:19.672Z,986.57
2022-12-08T01:12:19.660Z,986.52
2022-12-08T01:13:19.660Z,986.54
2022-12-08T01:14:19.674Z,986.53
2022-12-08T01:15:19.643Z,986.56
2022-12-08T01:16:19.679Z,986.56
2022-12-08T01:17:19.630Z,986.55
2022-12-08T01:18:19.621Z,986.54
2022-12-08T01:19:19.631Z,986.56
2022-12-08T01:20:19.593Z,986.57
2022-12-08T01:21:19.600Z,986.57
2022-12-08T01:22:19.585Z,986.57
2022-12-08T01:23:19.588Z,986.55
2022-12-08T01:24:19.587Z,986.61
2022-12-08T01:25:19.570Z,986.59
2022-12-08T01:26:19.561Z,986.60
2022-12-08T01:27:19.568Z,986.56
2022-12-08T01:28:19.525Z,986.63
2022-12-08T01:29:19.548Z,986.57
2022-12-08T01:30:19.519Z,986.60
2022-12-08T01:31:19.589Z,986.59
2022-12-08T01:32:19.507Z,986.61
2022-12-08T01:33:19.499Z,986.62
2022-12-08T01:34:19.509Z,986.60
2022-12-08T01:35:19.488Z,986.60
2022-12-08T01:36:19.465Z,986.63
2022-12-08T01:37:19.470Z,986.67
2022-12-08T01:38:19.459Z,986.64
2022-12-08T01:39:19.469Z,986.70
2022-12-08T01:40:19.442Z,986.64
2022-12-08T01:41:19.427Z,986.65
2022-12-08T01:42:19.426Z,986.69
2022-12-08T01:43:19.417Z,986.65
2022-12-08T01:44:19.413Z,986.71
2022-12-08T01:45:19.414Z,986.65
2022-12-08T01:46:19.517Z,986.64
2022-12-08T01:47:19.388Z,986.59
2022-12-08T01:48:19.465Z,986.65
2022-12-08T01:49:19.416Z,986.65
2022-12-08T01:50:19.370Z,986.63
2022-12-08T01:51:19.352Z,986.61
2022-12-08T01:52:19.327Z,986.64
2022-12-08T01:53:19.332Z,986.62
2022-12-08T01:54:19.343Z,986.61
2022-12-08T01:55:19.320Z,986.59
2022-12-08T01:56:19.306Z,986.55
2022-12-08T01:57:19.305Z,986.52
2022-12-08T01:58:19.297Z,986.49
2022-12-08T01:59:19.305Z,986.55
2022-12-08T02:00:19.272Z,986.53
2022-12-08T02:01:19.342Z,986.52
2022-12-08T02:02:19.454Z,986.56
2022-12-08T02:03:19.250Z,986.49
2022-12-08T02:04:19.280Z,986.52
2022-12-08T02:05:19.243Z,986.58
2022-12-08T02:06:19.226Z,986.54
2022-12-08T02:07:19.223Z,986.56
2022-12-08T02:08:19.290Z,986.46
2022-12-08T02:09:19.226Z,986.47
2022-12-08T02:10:19.201Z,986.48
2022-12-08T02:11:19.188Z,986.48
2022-12-08T02:12:19.182Z,986.47
2022-12-08T02:13:19.179Z,986.42
2022-12-08T02:14:19.188Z,986.46
2022-12-08T02:15:19.160Z,986.39
2022-12-08T02:16:19.186Z,986.36
2022-12-08T02:17:19.150Z,986.33
2022-12-08T02:18:19.144Z,986.32
2022-12-08T02:19:34.534Z,986.32
2022-12-08T02:20:21.127Z,986.37
2022-12-08T02:21:19.115Z,986.33
2022-12-08T02:22:19.111Z,986.31
2022-12-08T02:23:19.090Z,986.39
2022-12-08T02:24:19.101Z,986.33
2022-12-08T02:25:19.080Z,986.28
2022-12-08T02:26:19.078Z,986.31
2022-12-08T02:27:19.078Z,986.24
2022-12-08T02:28:19.062Z,986.29
2022-12-08T02:29:19.076Z,986.27
2022-12-08T02:30:19.049Z,986.26
2022-12-08T02:31:19.112Z,986.28
2022-12-08T02:32:19.019Z,986.20
2022-12-08T02:33:19.025Z,986.22
2022-12-08T02:34:19.028Z,986.21
2022-12-08T02:35:19.001Z,986.20
2022-12-08T02:36:18.989Z,986.19
2022-12-08T02:37:18.986Z,986.15
2022-12-08T02:38:18.976Z,986.24
2022-12-08T02:39:18.985Z,986.20
2022-12-08T02:40:18.949Z,986.16
2022-12-08T02:41:18.947Z,986.18
2022-12-08T02:42:18.943Z,986.17
2022-12-08T02:43:18.936Z,986.14
2022-12-08T02:44:18.947Z,986.14
2022-12-08T02:45:18.922Z,986.14
2022-12-08T02:46:18.981Z,986.15
2022-12-08T02:47:18.913Z,986.14
2022-12-08T02:48:18.885Z,986.17
2022-12-08T02:49:18.906Z,986.15
2022-12-08T02:50:18.879Z,986.14
2022-12-08T02:51:18.884Z,986.10
2022-12-08T02:52:18.852Z,986.09
2022-12-08T02:53:19.857Z,986.05
2022-12-08T02:54:18.867Z,986.04
2022-12-08T02:55:18.837Z,985.98
2022-12-08T02:56:18.824Z,985.98
2022-12-08T02:57:18.817Z,986.04
2022-12-08T02:58:18.811Z,985.98
2022-12-08T02:59:18.832Z,986.02
2022-12-08T03:00:18.794Z,986.06
2022-12-08T03:01:18.852Z,985.98
2022-12-08T03:02:18.826Z,986.00
2022-12-08T03:03:18.778Z,985.93
2022-12-08T03:04:18.782Z,985.92
2022-12-08T03:05:18.756Z,985.94
2022-12-08T03:06:18.748Z,985.93
2022-12-08T03:07:18.762Z,985.91
2022-12-08T03:08:18.785Z,985.98
2022-12-08T03:09:18.751Z,985.91
2022-12-08T03:10:18.727Z,985.89
2022-12-08T03:11:18.796Z,985.83
2022-12-08T03:12:18.696Z,985.81
2022-12-08T03:13:18.693Z,985.80
2022-12-08T03:14:19.705Z,985.81
2022-12-08T03:15:18.673Z,985.87
2022-12-08T03:16:18.794Z,985.86
2022-12-08T03:17:18.655Z,985.83
2022-12-08T03:18:18.658Z,985.80
2022-12-08T03:19:18.648Z,985.82
2022-12-08T03:20:18.655Z,985.77
2022-12-08T03:21:18.631Z,985.72
2022-12-08T03:22:18.620Z,985.74
2022-12-08T03:23:18.623Z,985.71
2022-12-08T03:24:18.603Z,985.72
2022-12-08T03:25:18.605Z,985.74
2022-12-08T03:26:18.592Z,985.70
2022-12-08T03:27:18.574Z,985.68
2022-12-08T03:28:18.572Z,985.69
2022-12-08T03:29:18.579Z,985.65
2022-12-08T03:30:18.572Z,985.65
2022-12-08T03:31:18.606Z,985.63
2022-12-08T03:32:18.536Z,985.64
2022-12-08T03:33:18.535Z,985.65
2022-12-08T03:34:18.531Z,985.60
2022-12-08T03:35:18.529Z,985.59
2022-12-08T03:36:18.506Z,985.59
2022-12-08T03:37:18.493Z,985.57
2022-12-08T03:38:18.499Z,985.61
2022-12-08T03:39:18.477Z,985.58
2022-12-08T03:40:18.502Z,985.57
2022-12-08T03:41:18.479Z,985.52
2022-12-08T03:42:18.459Z,985.53
2022-12-08T03:43:18.453Z,985.47
2022-12-08T03:44:18.446Z,985.53
2022-12-08T03:45:18.464Z,985.49
2022-12-08T03:46:18.485Z,985.53
2022-12-08T03:47:18.411Z,985.44
2022-12-08T03:48:18.412Z,985.51
2022-12-08T03:49:18.402Z,985.39
2022-12-08T03:50:18.414Z,985.49
2022-12-08T03:51:18.392Z,985.40
2022-12-08T03:52:18.382Z,985.47
2022-12-08T03:53:18.372Z,985.43
2022-12-08T03:54:18.362Z,985.45
2022-12-08T03:55:18.358Z,985.44
2022-12-08T03:56:18.346Z,985.41
2022-12-08T03:57:18.344Z,985.39
2022-12-08T03:58:18.359Z,985.40
2022-12-08T03:59:18.323Z,985.39
2022-12-08T04:00:18.364Z,985.40
2022-12-08T04:01:18.385Z,985.39
2022-12-08T04:02:18.397Z,985.31
2022-12-08T04:03:18.327Z,985.33
2022-12-08T04:04:18.277Z,985.29
2022-12-08T04:05:18.293Z,985.32
2022-12-08T04:06:18.269Z,985.34
2022-12-08T04:07:18.247Z,985.35
2022-12-08T04:08:18.324Z,985.28
2022-12-08T04:09:18.262Z,985.28
2022-12-08T04:10:18.249Z,985.26
2022-12-08T04:11:18.220Z,985.22
2022-12-08T04:12:18.208Z,985.23
2022-12-08T04:13:18.204Z,985.20
2022-12-08T04:14:18.190Z,985.23
2022-12-08T04:15:18.208Z,985.21
2022-12-08T04:16:18.252Z,985.19
2022-12-08T04:17:18.178Z,985.19
2022-12-08T04:18:18.165Z,985.20
2022-12-08T04:19:18.167Z,985.14
2022-12-08T04:20:18.166Z,985.15
2022-12-08T04:21:18.139Z,985.16
2022-12-08T04:22:18.132Z,985.16
2022-12-08T04:23:18.120Z,985.19
2022-12-08T04:24:18.115Z,985.15
2022-12-08T04:25:18.225Z,985.16
2022-12-08T04:26:18.091Z,985.12
2022-12-08T04:27:18.087Z,985.09
2022-12-08T04:28:18.068Z,985.07
2022-12-08T04:29:18.084Z,985.12
2022-12-08T04:30:18.095Z,985.10
2022-12-08T04:31:18.075Z,985.08
2022-12-08T04:32:18.044Z,985.14
2022-12-08T04:33:18.041Z,985.07
2022-12-08T04:34:18.032Z,985.04
2022-12-08T04:35:18.041Z,985.04
2022-12-08T04:36:18.013Z,985.07
2022-12-08T04:37:18.004Z,985.02
2022-12-08T04:38:17.996Z,985.01
2022-12-08T04:39:17.985Z,985.00
2022-12-08T04:40:17.990Z,985.01
2022-12-08T04:41:17.966Z,984.99
2022-12-08T04:42:17.968Z,984.94
2022-12-08T04:43:17.961Z,984.93
2022-12-08T04:44:17.945Z,984.99
2022-12-08T04:45:17.955Z,984.95
2022-12-08T04:46:17.957Z,984.90
2022-12-08T04:47:17.990Z,984.92
2022-12-08T04:48:17.908Z,984.94
2022-12-08T04:49:17.895Z,984.95
2022-12-08T04:50:17.921Z,984.98
2022-12-08T04:51:17.888Z,984.94
2022-12-08T04:52:17.868Z,984.96
2022-12-08T04:53:17.868Z,984.99
2022-12-08T04:54:17.855Z,984.90
2022-12-08T04:55:17.866Z,984.91
2022-12-08T04:56:17.841Z,984.91
2022-12-08T04:57:17.829Z,984.93
2022-12-08T04:58:17.821Z,984.88
2022-12-08T04:59:17.813Z,984.87
2022-12-08T05:00:17.817Z,984.88
2022-12-08T05:01:17.853Z,984.90
2022-12-08T05:02:17.884Z,984.90
2022-12-08T05:03:17.776Z,984.92
2022-12-08T05:04:17.755Z,984.88
2022-12-08T05:05:17.803Z,984.93
2022-12-08T05:06:17.759Z,984.86
2022-12-08T05:07:17.741Z,984.84
2022-12-08T05:08:17.756Z,984.86
2022-12-08T05:09:17.730Z,984.88
2022-12-08T05:10:17.738Z,984.88
2022-12-08T05:11:17.716Z,984.90
2022-12-08T05:12:17.702Z,984.86
2022-12-08T05:13:17.705Z,984.85
2022-12-08T05:14:17.696Z,984.88
2022-12-08T05:15:17.710Z,984.86
2022-12-08T05:16:17.783Z,984.90
2022-12-08T05:17:17.669Z,984.78
2022-12-08T05:18:17.656Z,984.81
2022-12-08T05:19:17.668Z,984.83
2022-12-08T05:20:17.655Z,984.79
2022-12-08T05:21:17.630Z,984.79
2022-12-08T05:22:17.623Z,984.77
2022-12-08T05:23:17.613Z,984.79
2022-12-08T05:24:17.610Z,984.81
2022-12-08T05:25:17.618Z,984.82
2022-12-08T05:26:17.583Z,984.82
2022-12-08T05:27:17.579Z,984.79
2022-12-08T05:28:40.751Z,984.82
2022-12-08T05:29:19.582Z,984.75
2022-12-08T05:30:17.577Z,984.82
2022-12-08T05:31:17.581Z,984.69
2022-12-08T05:32:17.532Z,984.76
2022-12-08T05:33:17.533Z,984.78
2022-12-08T05:34:17.527Z,984.74
2022-12-08T05:35:17.536Z,984.76
2022-12-08T05:36:17.516Z,984.72
2022-12-08T05:37:17.527Z,984.70
2022-12-08T05:38:17.501Z,984.71
2022-12-08T05:39:17.478Z,984.68
2022-12-08T05:40:17.498Z,984.70
2022-12-08T05:41:17.471Z,984.71
2022-12-08T05:42:23.163Z,984.76
2022-12-08T05:43:19.453Z,984.74
2022-12-08T05:44:17.447Z,984.71
2022-12-08T05:45:17.461Z,984.70
2022-12-08T05:46:17.518Z,984.65
2022-12-08T05:47:17.425Z,984.74
2022-12-08T05:48:17.402Z,984.66
2022-12-08T05:49:17.410Z,984.67
2022-12-08T05:50:17.426Z,984.67
2022-12-08T05:51:17.394Z,984.64
2022-12-08T05:52:17.371Z,984.69
2022-12-08T05:53:17.383Z,984.66
2022-12-08T05:54:17.369Z,984.62
2022-12-08T05:55:17.383Z,984.58
2022-12-08T05:56:17.356Z,984.58
2022-12-08T05:57:17.343Z,984.61
2022-12-08T05:58:17.330Z,984.62
2022-12-08T05:59:17.329Z,984.63
2022-12-08T06:00:17.325Z,984.57
2022-12-08T06:01:17.313Z,984.58
2022-12-08T06:02:17.492Z,984.57
2022-12-08T06:03:17.371Z,984.57
2022-12-08T06:04:17.278Z,984.57
2022-12-08T06:05:17.297Z,984.52
2022-12-08T06:06:17.269Z,984.52
2022-12-08T06:07:17.263Z,984.53
2022-12-08T06:08:17.344Z,984.51
2022-12-08T06:09:17.253Z,984.49
2022-12-08T06:10:17.258Z,984.47
2022-12-08T06:11:17.234Z,984.49
2022-12-08T06:12:17.242Z,984.43
2022-12-08T06:13:17.218Z,984.48
2022-12-08T06:14:17.220Z,984.48
2022-12-08T06:15:17.213Z,984.48
2022-12-08T06:16:17.213Z,984.46
2022-12-08T06:17:17.172Z,984.48
2022-12-08T06:18:17.169Z,984.44
2022-12-08T06:19:17.163Z,984.41
2022-12-08T06:20:17.180Z,984.44
2022-12-08T06:21:17.146Z,984.54
2022-12-08T06:22:17.138Z,984.43
2022-12-08T06:23:17.129Z,984.48
2022-12-08T06:24:17.125Z,984.44
2022-12-08T06:25:17.127Z,984.43
2022-12-08T06:26:17.105Z,984.42
2022-12-08T06:27:17.097Z,984.41
2022-12-08T06:28:17.099Z,984.45
2022-12-08T06:29:17.078Z,984.49
2022-12-08T06:30:17.092Z,984.48
2022-12-08T06:31:17.228Z,984.48
2022-12-08T06:32:17.141Z,984.46
2022-12-08T06:33:17.054Z,984.46
2022-12-08T06:34:17.052Z,984.49
2022-12-08T06:35:17.045Z,984.44
2022-12-08T06:36:17.024Z,984.46
2022-12-08T06:37:17.025Z,984.50
2022-12-08T06:38:17.007Z,984.47
2022-12-08T06:39:16.986Z,984.47
2022-12-08T06:40:17.013Z,984.41
2022-12-08T06:41:16.981Z,984.51
2022-12-08T06:42:16.969Z,984.51
2022-12-08T06:43:16.963Z,984.50
2022-12-08T06:44:16.967Z,984.45
2022-12-08T06:45:16.963Z,984.45
2022-12-08T06:46:17.087Z,984.47
2022-12-08T06:47:17.839Z,984.48
2022-12-08T06:49:58.079Z,984.42
2022-12-08T06:50:58.134Z,984.47
2022-12-08T06:51:58.083Z,984.44
2022-12-08T06:53:04.770Z,984.42
2022-12-08T06:53:59.067Z,984.43
2022-12-08T06:54:58.056Z,984.41
2022-12-08T06:55:59.644Z,984.42
2022-12-08T06:56:58.074Z,984.41
2022-12-08T06:57:58.060Z,984.47
2022-12-08T06:58:58.029Z,984.44
2022-12-08T06:59:58.011Z,984.44
2022-12-08T07:00:58.069Z,984.43
2022-12-08T07:01:58.091Z,984.33
2022-12-08T07:02:58.041Z,984.45
2022-12-08T07:03:57.974Z,984.34
2022-12-08T07:04:57.966Z,984.37
2022-12-08T07:06:03.477Z,984.36
2022-12-08T07:06:58.952Z,984.38
2022-12-08T07:07:57.967Z,984.37
2022-12-08T07:08:59.054Z,984.35
2022-12-08T07:09:59.061Z,984.37
2022-12-08T07:10:59.054Z,984.43
2022-12-08T07:11:59.036Z,984.38
2022-12-08T07:12:59.023Z,984.39
2022-12-08T07:13:59.009Z,984.39
2022-12-08T07:14:59.007Z,984.41
2022-12-08T07:15:59.008Z,984.41
2022-12-08T07:16:59.057Z,984.40
2022-12-08T07:18:00.212Z,984.43
2022-12-08T07:18:58.987Z,984.46
2022-12-08T07:19:58.977Z,984.41
2022-12-08T07:20:58.966Z,984.45
2022-12-08T07:21:58.954Z,984.43
2022-12-08T07:22:58.932Z,984.47
2022-12-08T07:23:58.913Z,984.41
2022-12-08T07:24:58.923Z,984.43
2022-12-08T07:25:58.920Z,984.40
2022-12-08T07:26:58.887Z,984.36
2022-12-08T07:27:58.907Z,984.38
2022-12-08T07:28:58.887Z,984.42
2022-12-08T07:29:58.856Z,984.38
2022-12-08T07:30:58.915Z,984.40
2022-12-08T07:31:58.844Z,984.37
2022-12-08T07:32:59.869Z,984.36
2022-12-08T07:33:58.824Z,984.36
2022-12-08T07:34:58.823Z,984.37
2022-12-08T07:35:58.828Z,984.39
2022-12-08T07:36:58.809Z,984.35
2022-12-08T07:37:58.798Z,984.32
2022-12-08T07:38:58.810Z,984.38
2022-12-08T07:39:58.786Z,984.30
2022-12-08T07:40:58.781Z,984.33
2022-12-08T07:41:58.781Z,984.35
2022-12-08T07:42:58.774Z,984.29
2022-12-08T07:43:58.758Z,984.30
2022-12-08T07:44:58.754Z,984.23
2022-12-08T07:45:58.792Z,984.24
2022-12-08T07:46:58.735Z,984.24
2022-12-08T07:47:58.724Z,984.26
2022-12-08T07:48:58.701Z,984.22
2022-12-08T07:49:58.692Z,984.17
2022-12-08T07:50:58.705Z,984.27
2022-12-08T07:51:58.685Z,984.24
2022-12-08T07:52:58.668Z,984.24
2022-12-08T07:53:58.646Z,984.26
2022-12-08T07:54:58.666Z,984.25
2022-12-08T07:55:58.648Z,984.23
2022-12-08T07:56:58.637Z,984.27
2022-12-08T07:57:58.619Z,984.30
2022-12-08T07:58:58.605Z,984.30
2022-12-08T07:59:58.608Z,984.29
2022-12-08T08:00:58.827Z,984.30
2022-12-08T08:02:22.399Z,984.27
2022-12-08T08:03:00.643Z,984.32
2022-12-08T08:03:58.580Z,984.26
2022-12-08T08:04:58.620Z,984.28
2022-12-08T08:05:58.559Z,984.27
2022-12-08T08:06:58.535Z,984.21
2022-12-08T08:07:58.649Z,984.27
2022-12-08T08:08:58.528Z,984.32
2022-12-08T08:09:58.496Z,984.25
2022-12-08T08:10:58.523Z,984.24
2022-12-08T08:12:28.991Z,984.23
2022-12-08T08:13:00.480Z,984.24
2022-12-08T08:13:58.500Z,984.24
2022-12-08T08:14:58.464Z,984.20
2022-12-08T08:15:58.571Z,984.13
2022-12-08T08:16:58.634Z,984.11
2022-12-08T08:17:58.440Z,984.18
2022-12-08T08:18:58.478Z,984.26
2022-12-08T08:19:58.443Z,984.19
2022-12-08T08:21:06.615Z,984.24
2022-12-08T08:21:59.411Z,984.25
2022-12-08T08:22:58.473Z,984.21
2022-12-08T08:23:58.407Z,984.23
2022-12-08T08:24:58.373Z,984.20
2022-12-08T08:25:58.379Z,984.19
2022-12-08T08:26:58.379Z,984.16
2022-12-08T08:27:58.345Z,984.24
2022-12-08T08:28:58.342Z,984.20
2022-12-08T08:29:58.332Z,984.25
2022-12-08T08:30:58.364Z,984.21
2022-12-08T08:31:58.339Z,984.19
2022-12-08T08:32:58.346Z,984.17
2022-12-08T08:33:58.289Z,984.16
2022-12-08T08:34:58.282Z,984.24
2022-12-08T08:35:58.288Z,984.31
2022-12-08T08:36:58.357Z,984.24
2022-12-08T08:37:58.283Z,984.17
2022-12-08T08:38:58.292Z,984.16
2022-12-08T08:39:58.234Z,984.17
2022-12-08T08:40:58.259Z,984.22
2022-12-08T08:41:58.210Z,984.23
2022-12-08T08:42:58.206Z,984.20
2022-12-08T08:43:58.243Z,984.23
2022-12-08T08:44:58.213Z,984.22
2022-12-08T08:45:58.236Z,984.20
2022-12-08T08:46:58.224Z,984.25
2022-12-08T08:47:58.157Z,984.26
2022-12-08T08:48:58.139Z,984.23
2022-12-08T08:49:58.142Z,984.25
2022-12-08T08:50:58.147Z,984.29
2022-12-08T08:51:58.116Z,984.28
2022-12-08T08:52:58.111Z,984.23
2022-12-08T08:53:58.127Z,984.25
2022-12-08T08:54:58.122Z,984.26
2022-12-08T08:55:58.096Z,984.24
2022-12-08T08:56:58.087Z,984.29
2022-12-08T08:57:58.082Z,984.31
2022-12-08T08:58:58.050Z,984.30
2022-12-08T08:59:58.037Z,984.32
2022-12-08T09:00:58.053Z,984.31
2022-12-08T09:01:58.084Z,984.30
2022-12-08T09:02:58.015Z,984.35
2022-12-08T09:03:58.233Z,984.33
2022-12-08T09:04:58.051Z,984.34
2022-12-08T09:05:58.096Z,984.36
2022-12-08T09:06:57.972Z,984.32
2022-12-08T09:07:58.016Z,984.25
2022-12-08T09:08:57.956Z,984.29
2022-12-08T09:10:01.590Z,984.29
2022-12-08T09:10:57.938Z,984.30
2022-12-08T09:11:57.937Z,984.31
2022-12-08T09:12:57.912Z,984.31
2022-12-08T09:13:57.945Z,984.32
2022-12-08T09:14:57.888Z,984.33
2022-12-08T09:15:57.950Z,984.33
2022-12-08T09:16:57.889Z,984.29
2022-12-08T09:17:57.866Z,984.30
2022-12-08T09:18:57.871Z,984.35
2022-12-08T09:19:57.840Z,984.36
2022-12-08T09:20:57.840Z,984.35
2022-12-08T09:21:57.836Z,984.35
2022-12-08T09:22:57.809Z,984.35
2022-12-08T09:23:57.803Z,984.30
2022-12-08T09:24:57.788Z,984.36
2022-12-08T09:25:57.780Z,984.34
2022-12-08T09:26:57.798Z,984.35
2022-12-08T09:27:57.767Z,984.29
2022-12-08T09:28:57.772Z,984.31
2022-12-08T09:29:57.738Z,984.27
2022-12-08T09:30:57.778Z,984.30
2022-12-08T09:31:57.851Z,984.30
2022-12-08T09:32:57.725Z,984.22
2022-12-08T09:33:57.695Z,984.32
2022-12-08T09:34:57.695Z,984.26
2022-12-08T09:35:57.680Z,984.22
2022-12-08T09:36:57.720Z,984.27
2022-12-08T09:37:57.664Z,984.29
2022-12-08T09:38:57.637Z,984.20
2022-12-08T09:39:57.637Z,984.16
2022-12-08T09:40:57.632Z,984.14
2022-12-08T09:41:57.650Z,984.23
2022-12-08T09:42:57.606Z,984.17
2022-12-08T09:43:57.596Z,984.18
2022-12-08T09:44:57.593Z,984.11
2022-12-08T09:45:57.588Z,984.15
2022-12-08T09:46:57.642Z,984.15
2022-12-08T09:47:57.561Z,984.14
2022-12-08T09:48:57.557Z,984.21
2022-12-08T09:49:57.545Z,984.18
2022-12-08T09:50:57.529Z,984.16
2022-12-08T09:51:57.539Z,984.16
2022-12-08T09:52:57.514Z,984.20
2022-12-08T09:53:57.495Z,984.16
2022-12-08T09:54:57.498Z,984.13
2022-12-08T09:55:57.512Z,984.15
2022-12-08T09:56:57.494Z,984.06
2022-12-08T09:57:57.462Z,984.11
2022-12-08T09:58:57.457Z,984.11
2022-12-08T09:59:57.459Z,984.11
2022-12-08T10:00:57.448Z,984.05
2022-12-08T10:01:57.535Z,984.08
2022-12-08T10:02:57.446Z,984.07
2022-12-08T10:03:57.413Z,984.08
2022-12-08T10:04:57.492Z,984.07
2022-12-08T10:05:57.389Z,984.10
2022-12-08T10:06:57.391Z,984.07
2022-12-08T10:07:57.410Z,984.11
2022-12-08T10:08:57.364Z,984.12
2022-12-08T10:09:57.344Z,984.13
2022-12-08T10:10:57.350Z,984.06
2022-12-08T10:11:57.356Z,984.06
2022-12-08T10:12:57.319Z,984.07
2022-12-08T10:13:57.306Z,984.02
2022-12-08T10:14:57.301Z,984.05
2022-12-08T10:15:57.490Z,983.99
2022-12-08T10:16:57.338Z,984.00
2022-12-08T10:17:57.254Z,983.98
2022-12-08T10:18:57.270Z,984.00
2022-12-08T10:19:57.262Z,983.94
2022-12-08T10:20:57.244Z,983.90
2022-12-08T10:21:57.285Z,984.01
2022-12-08T10:22:57.240Z,983.94
2022-12-08T10:23:57.232Z,983.93
2022-12-08T10:24:57.205Z,983.85
2022-12-08T10:25:57.180Z,983.87
2022-12-08T10:26:57.203Z,983.89
2022-12-08T10:27:57.169Z,983.87
2022-12-08T10:28:57.171Z,983.82
2022-12-08T10:29:57.149Z,983.79
2022-12-08T10:30:57.239Z,983.79
2022-12-08T10:31:57.185Z,983.81
2022-12-08T10:32:57.132Z,983.73
2022-12-08T10:33:57.118Z,983.81
2022-12-08T10:34:57.098Z,983.78
2022-12-08T10:35:57.105Z,983.81
2022-12-08T10:36:57.101Z,983.74
2022-12-08T10:37:57.065Z,983.75
2022-12-08T10:38:57.066Z,983.81
2022-12-08T10:39:57.050Z,983.81
2022-12-08T10:40:57.039Z,983.79
2022-12-08T10:41:57.066Z,983.74
2022-12-08T10:42:57.028Z,983.78
2022-12-08T10:43:57.024Z,983.78
2022-12-08T10:44:57.037Z,983.69
2022-12-08T10:45:56.984Z,983.70
2022-12-08T10:46:57.041Z,983.70
2022-12-08T10:47:56.960Z,983.68
2022-12-08T10:48:56.961Z,983.69
2022-12-08T10:49:56.938Z,983.64
2022-12-08T10:50:56.935Z,983.67
2022-12-08T10:51:56.943Z,983.68
2022-12-08T10:52:56.933Z,983.63
2022-12-08T10:53:56.904Z,983.62
2022-12-08T10:54:56.914Z,983.61
2022-12-08T10:55:56.899Z,983.55
2022-12-08T10:56:56.897Z,983.58
2022-12-08T10:57:56.867Z,983.65
2022-12-08T10:58:56.866Z,983.61
2022-12-08T10:59:56.847Z,983.60
2022-12-08T11:00:56.928Z,983.57
2022-12-08T11:01:57.014Z,983.58
2022-12-08T11:02:56.866Z,983.56
2022-12-08T11:03:56.811Z,983.55
2022-12-08T11:04:56.784Z,983.52
2022-12-08T11:05:56.778Z,983.57
2022-12-08T11:06:56.787Z,983.59
2022-12-08T11:07:56.782Z,983.62
2022-12-08T11:08:56.749Z,983.60
2022-12-08T11:09:56.752Z,983.55
2022-12-08T11:10:56.740Z,983.59
2022-12-08T11:11:56.742Z,983.62
2022-12-08T11:12:56.703Z,983.52
2022-12-08T11:13:56.681Z,983.61
2022-12-08T11:14:56.674Z,983.52
2022-12-08T11:15:56.690Z,983.51
2022-12-08T11:16:56.719Z,983.53
2022-12-08T11:17:57.789Z,983.54
2022-12-08T11:18:57.634Z,983.53
2022-12-08T11:19:56.624Z,983.50
2022-12-08T11:20:56.620Z,983.50
2022-12-08T11:21:56.611Z,983.53
2022-12-08T11:22:56.624Z,983.52
2022-12-08T11:23:56.580Z,983.47
2022-12-08T11:24:56.568Z,983.42
2022-12-08T11:25:56.570Z,983.43
2022-12-08T11:26:56.579Z,983.40
2022-12-08T11:27:56.547Z,983.43
2022-12-08T11:28:56.541Z,983.47
2022-12-08T11:29:56.538Z,983.42
2022-12-08T11:30:56.513Z,983.43
2022-12-08T11:31:56.550Z,983.42
2022-12-08T11:32:56.476Z,983.50
2022-12-08T11:33:56.470Z,983.45
2022-12-08T11:34:56.463Z,983.46
2022-12-08T11:35:56.457Z,983.47
2022-12-08T11:36:56.448Z,983.44
2022-12-08T11:38:07.835Z,983.46
2022-12-08T11:38:57.422Z,983.41
2022-12-08T11:39:56.404Z,983.43
2022-12-08T11:40:56.407Z,983.46
2022-12-08T11:41:56.412Z,983.46
2022-12-08T11:42:56.370Z,983.40
2022-12-08T11:43:56.362Z,983.48
2022-12-08T11:44:57.356Z,983.47
2022-12-08T11:45:56.369Z,983.50
2022-12-08T11:46:56.348Z,983.49
2022-12-08T11:47:56.334Z,983.44
2022-12-08T11:48:58.970Z,983.48
2022-12-08T11:49:57.284Z,983.44
2022-12-08T11:50:56.288Z,983.45
2022-12-08T11:51:56.296Z,983.42
2022-12-08T11:52:56.258Z,983.48
2022-12-08T11:53:56.244Z,983.39
2022-12-08T11:54:56.251Z,983.43
2022-12-08T11:55:56.227Z,983.38
2022-12-08T11:56:56.232Z,983.39
2022-12-08T11:57:56.314Z,983.35
2022-12-08T11:58:56.197Z,983.37
2022-12-08T11:59:56.174Z,983.35
2022-12-08T12:00:56.177Z,983.36
2022-12-08T12:01:56.284Z,983.43
2022-12-08T12:02:56.181Z,983.37
2022-12-08T12:03:56.176Z,983.40
2022-12-08T12:04:56.163Z,983.39
2022-12-08T12:06:13.142Z,983.44
2022-12-08T12:06:58.142Z,983.38
2022-12-08T12:07:56.216Z,983.39
2022-12-08T12:08:56.080Z,983.38
2022-12-08T12:09:56.061Z,983.42
2022-12-08T12:10:56.067Z,983.43
2022-12-08T12:11:56.072Z,983.36
2022-12-08T12:12:56.028Z,983.30
2022-12-08T12:13:56.027Z,983.42
2022-12-08T12:14:56.008Z,983.35
2022-12-08T12:15:56.024Z,983.31
2022-12-08T12:16:56.120Z,983.32
2022-12-08T12:17:55.977Z,983.31
2022-12-08T12:18:55.964Z,983.35
2022-12-08T12:19:55.956Z,983.32
2022-12-08T12:20:55.951Z,983.35
2022-12-08T12:21:55.947Z,983.33
2022-12-08T12:22:55.930Z,983.38
2022-12-08T12:23:55.904Z,983.26
2022-12-08T12:24:55.893Z,983.38
2022-12-08T12:25:55.882Z,983.34
2022-12-08T12:26:55.877Z,983.36
2022-12-08T12:27:57.476Z,983.32
2022-12-08T12:28:56.869Z,983.28
2022-12-08T12:29:56.346Z,983.29